This is the latest recevied weather packets stored in our database for station/object W4SKW. If no packets are shown the sender has not sent any weather packets the latest 10 day(s).
| Time | Temp. | Humidity | Pressure | Rain* | Wind** | Luminosity | Snow |
|---|---|---|---|---|---|---|---|
| 1777647518 | 16.67° C | 71% | 1016.3 hPa | 0 mm | - | 230 W/m² | - |
| 1777647215 | 16.67° C | 69% | 1016.5 hPa | 0 mm | - | 202 W/m² | - |
| 1777646912 | 16.11° C | 72% | 1016.6 hPa | 0 mm | - | 195 W/m² | - |
| 1777646607 | 16.67° C | 65% | 1017 hPa | 0 mm | - | 200 W/m² | - |
| 1777646304 | 16.67° C | 66% | 1016.8 hPa | 0 mm | - | 199 W/m² | - |
| 1777646001 | 16.11° C | 67% | 1016.6 hPa | 0 mm | - | 211 W/m² | - |
| 1777645698 | 16.11° C | 66% | 1016.7 hPa | 0 mm | - | 184 W/m² | - |
| 1777645394 | 16.11° C | 66% | 1016.7 hPa | 0 mm | - | 184 W/m² | - |
| 1777645090 | 15.56° C | 68% | 1016.5 hPa | 0 mm | - | 191 W/m² | - |
| 1777644786 | 15° C | 68% | 1016.5 hPa | 0 mm | - | 170 W/m² | - |
| 1777644484 | 15° C | 69% | 1016.2 hPa | 0 mm | - | 153 W/m² | - |
| 1777644181 | 14.44° C | 71% | 1016.1 hPa | 0 mm | - | 133 W/m² | - |
| 1777643877 | 14.44° C | 69% | 1016.2 hPa | 0 mm | - | 123 W/m² | - |
| 1777643575 | 14.44° C | 72% | 1016.3 hPa | 0 mm | - | 142 W/m² | - |
| 1777643271 | 13.89° C | 73% | 1016.4 hPa | 0 mm | - | 159 W/m² | - |
| 1777642968 | 13.89° C | 75% | 1016.4 hPa | 0 mm | - | 138 W/m² | - |
| 1777642664 | 13.89° C | 76% | 1016 hPa | 0 mm | - | 117 W/m² | - |
| 1777642361 | 13.33° C | 75% | 1016 hPa | 0 mm | - | 101 W/m² | - |
| 1777642058 | 13.33° C | 75% | 1016 hPa | 0 mm | - | 101 W/m² | - |
| 1777641754 | 12.78° C | 77% | 1016 hPa | 0 mm | - | 99 W/m² | - |
| 1777641449 | 12.78° C | 78% | 1015.8 hPa | 0 mm | - | 79 W/m² | - |
| 1777641144 | 12.78° C | 77% | 1016.1 hPa | 0 mm | - | 54 W/m² | - |
| 1777640840 | 12.22° C | 78% | 1016.1 hPa | 0 mm | - | 71 W/m² | - |
| 1777640538 | 12.22° C | 75% | 1016.2 hPa | 0 mm | - | 69 W/m² | - |
| 1777640234 | 12.22° C | 80% | 1016.2 hPa | 0 mm | - | 78 W/m² | - |
* Rain latest hour (hover to see other rain measurements)
** Current wind speed in m/s (hover to see current wind gust speed)